createdAt,value
2018-04-13T00:01:34.244Z,71.62
2018-04-13T00:04:01.811Z,71.29
2018-04-13T00:06:29.756Z,71.73
2018-04-13T00:08:57.370Z,71.18
2018-04-13T00:11:25.217Z,71.22
2018-04-13T00:13:52.819Z,71.22
2018-04-13T00:16:20.341Z,71.72
2018-04-13T00:18:47.895Z,71.66
2018-04-13T00:21:15.445Z,71.93
2018-04-13T00:23:43.122Z,72.00
2018-04-13T00:26:10.685Z,71.82
2018-04-13T00:28:38.284Z,72.44
2018-04-13T00:31:05.819Z,73.86
2018-04-13T00:33:33.419Z,73.01
2018-04-13T00:36:00.979Z,72.89
2018-04-13T00:38:28.557Z,73.00
2018-04-13T00:40:56.107Z,73.14
2018-04-13T00:43:23.717Z,73.65
2018-04-13T00:45:51.253Z,73.40
2018-04-13T00:48:18.831Z,73.78
2018-04-13T00:50:46.373Z,74.29
2018-04-13T00:53:25.696Z,74.00
2018-04-13T00:55:53.274Z,74.10
2018-04-13T00:58:21.125Z,74.34
2018-04-13T01:00:48.717Z,74.36
2018-04-13T01:03:16.272Z,74.56
2018-04-13T01:05:43.816Z,74.65
2018-04-13T01:08:11.363Z,74.68
2018-04-13T01:10:38.928Z,74.76
2018-04-13T01:13:06.485Z,74.83
2018-04-13T01:15:34.073Z,75.01
2018-04-13T01:18:01.619Z,75.30
2018-04-13T01:20:29.211Z,75.39
2018-04-13T01:22:56.810Z,75.63
2018-04-13T01:25:24.366Z,75.75
2018-04-13T01:27:51.902Z,75.03
2018-04-13T01:30:19.462Z,74.89
2018-04-13T01:32:47.005Z,75.03
2018-04-13T01:35:14.590Z,74.87
2018-04-13T01:37:42.145Z,74.80
2018-04-13T01:40:09.754Z,74.88
2018-04-13T01:42:37.301Z,74.96
2018-04-13T01:45:04.866Z,75.02
2018-04-13T01:47:32.414Z,75.14
2018-04-13T01:50:00.010Z,75.45
2018-04-13T01:52:27.571Z,75.45
2018-04-13T01:54:55.308Z,75.62
2018-04-13T01:57:22.852Z,75.53
2018-04-13T01:59:50.476Z,75.67
2018-04-13T02:02:18.040Z,75.71
2018-04-13T02:04:46.288Z,76.00
2018-04-13T02:07:13.842Z,76.32
2018-04-13T02:09:41.966Z,76.29
2018-04-13T02:12:09.791Z,76.32
2018-04-13T02:14:37.851Z,76.59
2018-04-13T02:17:05.414Z,76.67
2018-04-13T02:19:32.979Z,76.48
2018-04-13T02:22:00.523Z,76.74
2018-04-13T02:24:28.100Z,76.96
2018-04-13T02:26:55.659Z,76.82
2018-04-13T02:29:23.247Z,77.19
2018-04-13T02:31:50.792Z,77.36
2018-04-13T02:34:18.445Z,77.51
2018-04-13T02:36:46.041Z,77.38
2018-04-13T02:39:13.593Z,77.77
2018-04-13T02:41:41.209Z,78.11
2018-04-13T02:44:25.860Z,77.89
2018-04-13T02:46:53.491Z,77.60
2018-04-13T02:49:21.069Z,77.69
2018-04-13T02:51:48.615Z,77.83
2018-04-13T02:54:16.159Z,77.95
2018-04-13T02:56:43.704Z,78.19
2018-04-13T02:59:11.263Z,77.99
2018-04-13T03:01:38.841Z,77.86
2018-04-13T03:04:06.423Z,77.85
2018-04-13T03:06:33.976Z,78.09
2018-04-13T03:09:01.576Z,78.11
2018-04-13T03:11:29.120Z,78.38
2018-04-13T03:13:56.732Z,78.88
2018-04-13T03:16:24.291Z,78.71
2018-04-13T03:18:51.969Z,79.02
2018-04-13T03:21:19.515Z,78.91
2018-04-13T03:23:47.176Z,78.70
2018-04-13T03:26:14.717Z,78.41
2018-04-13T03:28:42.295Z,78.26
2018-04-13T03:31:09.832Z,78.37
2018-04-13T03:33:37.420Z,78.42
2018-04-13T03:36:04.965Z,78.39
2018-04-13T03:38:32.525Z,78.67
2018-04-13T03:41:20.182Z,78.50
2018-04-13T03:43:47.769Z,78.58
2018-04-13T03:46:15.316Z,78.46
2018-04-13T03:48:43.526Z,78.43
2018-04-13T03:51:11.045Z,78.35
2018-04-13T03:53:39.152Z,78.82
2018-04-13T03:56:06.702Z,78.49
2018-04-13T03:58:34.606Z,78.59
2018-04-13T04:01:02.280Z,78.62
2018-04-13T04:03:30.039Z,78.87
2018-04-13T04:05:57.567Z,79.08
2018-04-13T04:08:25.297Z,79.30
2018-04-13T04:10:53.003Z,79.10
2018-04-13T04:13:20.841Z,79.29
2018-04-13T04:15:48.742Z,79.17
2018-04-13T04:18:16.272Z,79.65
2018-04-13T04:20:55.677Z,79.76
2018-04-13T04:23:35.726Z,81.12
2018-04-13T04:26:21.819Z,81.59
2018-04-13T04:28:49.859Z,81.58
2018-04-13T04:31:17.421Z,82.54
2018-04-13T04:33:45.425Z,82.24
2018-04-13T04:36:13.012Z,83.64
2018-04-13T04:38:40.586Z,83.97
2018-04-13T04:41:08.240Z,84.41
2018-04-13T04:43:35.794Z,84.65
2018-04-13T04:46:03.491Z,84.02
2018-04-13T04:48:31.033Z,83.05
2018-04-13T04:50:59.130Z,82.70
2018-04-13T04:53:26.686Z,82.52
2018-04-13T04:55:54.254Z,82.10
2018-04-13T04:58:21.884Z,81.79
2018-04-13T05:00:49.890Z,82.12
2018-04-13T05:03:17.840Z,82.08
2018-04-13T05:05:45.841Z,82.35
2018-04-13T05:08:13.413Z,82.49
2018-04-13T05:10:41.182Z,82.52
2018-04-13T05:13:08.772Z,82.67
2018-04-13T05:15:36.300Z,83.16
2018-04-13T05:18:03.868Z,83.13
2018-04-13T05:20:31.425Z,82.73
2018-04-13T05:22:59.045Z,82.51
2018-04-13T05:25:26.591Z,82.65
2018-04-13T05:27:54.171Z,83.30
2018-04-13T05:30:21.742Z,83.21
2018-04-13T05:32:49.317Z,82.71
2018-04-13T05:35:17.005Z,83.09
2018-04-13T05:37:44.566Z,82.85
2018-04-13T05:40:12.177Z,82.80
2018-04-13T05:42:39.747Z,82.86
2018-04-13T05:45:07.666Z,82.44
2018-04-13T05:47:37.740Z,81.92
2018-04-13T05:50:05.351Z,80.98
2018-04-13T05:52:32.882Z,81.19
2018-04-13T05:55:00.487Z,81.92
2018-04-13T05:57:28.166Z,81.98
2018-04-13T05:59:56.421Z,81.99
2018-04-13T06:02:23.957Z,81.78
2018-04-13T06:04:52.420Z,81.09
2018-04-13T06:07:19.992Z,81.20
2018-04-13T06:09:47.833Z,81.30
2018-04-13T06:12:15.428Z,81.39
2018-04-13T06:14:42.995Z,81.36
2018-04-13T06:17:10.655Z,81.47
2018-04-13T06:19:38.209Z,81.98
2018-04-13T06:22:05.807Z,81.41
2018-04-13T06:24:33.377Z,81.08
2018-04-13T06:27:01.028Z,81.19
2018-04-13T06:29:28.606Z,81.26
2018-04-13T06:31:56.247Z,81.16
2018-04-13T06:34:23.830Z,81.36
2018-04-13T06:36:55.045Z,81.65
2018-04-13T06:39:19.449Z,81.53
2018-04-13T06:41:47.022Z,81.24
2018-04-13T06:44:14.590Z,81.07
2018-04-13T06:46:42.130Z,81.23
2018-04-13T06:49:09.669Z,81.27
2018-04-13T06:51:37.234Z,81.10
2018-04-13T06:54:04.776Z,80.89
2018-04-13T06:56:33.209Z,81.14
2018-04-13T06:59:00.775Z,81.04
2018-04-13T07:01:28.785Z,80.95
2018-04-13T07:03:56.341Z,80.93
2018-04-13T07:06:23.907Z,81.18
2018-04-13T07:08:51.450Z,81.21
2018-04-13T07:11:18.989Z,81.09
2018-04-13T07:13:46.566Z,82.03
2018-04-13T07:16:14.094Z,81.71
2018-04-13T07:18:41.678Z,81.99
2018-04-13T07:21:09.287Z,82.04
2018-04-13T07:23:36.952Z,81.71
2018-04-13T07:26:04.514Z,81.43
2018-04-13T07:28:32.074Z,80.38
2018-04-13T07:30:59.638Z,80.42
2018-04-13T07:33:27.259Z,79.96
2018-04-13T07:35:55.225Z,79.36
2018-04-13T07:38:22.416Z,79.54
2018-04-13T07:40:49.954Z,78.48
2018-04-13T07:43:17.519Z,77.96
2018-04-13T07:45:45.345Z,78.21
2018-04-13T07:48:13.124Z,78.22
2018-04-13T07:50:40.690Z,78.07
2018-04-13T07:53:08.692Z,78.06
2018-04-13T07:55:36.270Z,77.67
2018-04-13T07:58:04.255Z,77.13
2018-04-13T08:00:31.783Z,75.95
2018-04-13T08:02:59.719Z,75.82
2018-04-13T08:05:27.316Z,76.04
2018-04-13T08:07:54.872Z,75.67
2018-04-13T08:10:22.429Z,75.21
2018-04-13T08:12:49.984Z,74.78
2018-04-13T08:15:17.522Z,74.88
2018-04-13T08:17:45.077Z,74.32
2018-04-13T08:20:12.629Z,74.56
2018-04-13T08:22:40.180Z,74.83
2018-04-13T08:25:07.737Z,74.63
2018-04-13T08:27:35.290Z,74.27
2018-04-13T08:30:02.874Z,73.65
2018-04-13T08:32:30.433Z,72.53
2018-04-13T08:34:57.983Z,72.49
2018-04-13T08:37:25.535Z,71.73
2018-04-13T08:39:53.141Z,72.10
2018-04-13T08:42:20.709Z,71.53
2018-04-13T08:44:48.297Z,71.75
2018-04-13T08:47:15.897Z,72.28
2018-04-13T08:49:43.482Z,72.27
2018-04-13T08:52:11.014Z,72.36
2018-04-13T08:54:38.604Z,71.61
2018-04-13T08:57:06.192Z,71.96
2018-04-13T08:59:33.774Z,71.30
2018-04-13T09:02:01.302Z,71.70
2018-04-13T09:04:28.872Z,71.41
2018-04-13T09:06:56.424Z,70.16
2018-04-13T09:09:23.991Z,70.19
2018-04-13T09:11:51.537Z,69.32
2018-04-13T09:14:19.124Z,68.13
2018-04-13T09:16:46.758Z,66.31
2018-04-13T09:19:14.314Z,64.62
2018-04-13T09:21:41.881Z,63.68
2018-04-13T09:24:09.451Z,64.06
2018-04-13T09:26:36.979Z,62.32
2018-04-13T09:29:04.547Z,62.50
2018-04-13T09:31:32.098Z,61.45
2018-04-13T09:33:59.687Z,60.98
2018-04-13T09:36:27.207Z,59.27
2018-04-13T09:38:54.850Z,59.18
2018-04-13T09:41:22.391Z,58.63
2018-04-13T09:43:49.955Z,55.15
2018-04-13T09:46:17.499Z,53.36
2018-04-13T09:48:45.054Z,54.39
2018-04-13T09:51:12.601Z,54.32
2018-04-13T09:53:40.135Z,54.27
2018-04-13T09:56:07.670Z,54.47
2018-04-13T09:58:35.229Z,53.57
2018-04-13T10:01:02.773Z,53.78
2018-04-13T10:03:36.139Z,54.36
2018-04-13T10:06:03.696Z,54.25
2018-04-13T10:08:31.246Z,53.95
2018-04-13T10:10:58.771Z,55.26
2018-04-13T10:13:26.323Z,55.26
2018-04-13T10:15:53.930Z,54.70
2018-04-13T10:18:21.489Z,55.15
2018-04-13T10:20:49.053Z,54.39
2018-04-13T10:23:16.612Z,54.91
2018-04-13T10:25:44.166Z,55.77
2018-04-13T10:28:11.725Z,56.37
2018-04-13T10:30:39.281Z,56.59
2018-04-13T10:33:07.231Z,56.25
2018-04-13T10:35:34.785Z,56.03
2018-04-13T10:38:02.735Z,56.53
2018-04-13T10:40:30.308Z,56.95
2018-04-13T10:42:58.220Z,56.57
2018-04-13T10:45:25.777Z,56.16
2018-04-13T10:47:53.349Z,55.28
2018-04-13T10:50:20.929Z,54.89
2018-04-13T10:52:48.471Z,54.71
2018-04-13T10:55:16.044Z,54.81
2018-04-13T10:57:43.618Z,55.12
2018-04-13T11:00:11.181Z,55.29
2018-04-13T11:02:38.744Z,55.10
2018-04-13T11:05:06.314Z,55.31
2018-04-13T11:07:33.846Z,55.43
2018-04-13T11:10:01.396Z,55.69
2018-04-13T11:12:28.933Z,56.40
2018-04-13T11:14:56.536Z,56.15
2018-04-13T11:17:24.103Z,55.74
2018-04-13T11:19:51.834Z,55.52
2018-04-13T11:22:19.393Z,55.91
2018-04-13T11:24:46.946Z,55.53
2018-04-13T11:27:14.507Z,55.51
2018-04-13T11:29:42.082Z,55.67
2018-04-13T11:32:09.649Z,56.21
2018-04-13T11:34:37.810Z,56.14
2018-04-13T11:37:05.363Z,56.04
2018-04-13T11:39:32.900Z,56.05
2018-04-13T11:42:00.436Z,55.98
2018-04-13T11:44:28.496Z,56.11
2018-04-13T11:46:56.053Z,56.40
2018-04-13T11:49:24.065Z,56.31
2018-04-13T11:51:51.680Z,56.62
2018-04-13T11:54:19.419Z,56.41
2018-04-13T11:56:46.998Z,55.88
2018-04-13T11:59:14.567Z,56.25
2018-04-13T12:01:42.110Z,55.92
2018-04-13T12:04:09.644Z,55.40
2018-04-13T12:06:37.212Z,55.71
2018-04-13T12:09:04.774Z,55.53
2018-04-13T12:11:32.355Z,55.64
2018-04-13T12:13:59.948Z,54.93
2018-04-13T12:16:27.511Z,54.41
2018-04-13T12:18:55.093Z,53.75
2018-04-13T12:21:22.666Z,54.14
2018-04-13T12:23:50.752Z,54.50
2018-04-13T12:26:18.636Z,54.38
2018-04-13T12:28:46.219Z,53.54
2018-04-13T12:31:13.795Z,52.42
2018-04-13T12:33:41.320Z,53.36
2018-04-13T12:36:08.962Z,52.83
2018-04-13T12:38:36.516Z,52.54
2018-04-13T12:41:04.538Z,51.40
2018-04-13T12:43:32.128Z,50.30
2018-04-13T12:45:59.983Z,51.39
2018-04-13T12:48:27.593Z,51.23
2018-04-13T12:50:55.432Z,52.02
2018-04-13T12:53:22.992Z,51.45
2018-04-13T12:55:50.550Z,52.06
2018-04-13T12:58:18.087Z,52.80
2018-04-13T13:00:45.680Z,53.24
2018-04-13T13:03:13.209Z,53.45
2018-04-13T13:05:40.747Z,53.61
2018-04-13T13:08:08.293Z,53.04
2018-04-13T13:10:35.819Z,53.43
2018-04-13T13:13:03.360Z,52.95
2018-04-13T13:15:30.911Z,50.84
2018-04-13T13:17:58.466Z,51.46
2018-04-13T13:20:26.011Z,51.17
2018-04-13T13:22:53.560Z,50.14
2018-04-13T13:25:21.223Z,50.93
2018-04-13T13:27:48.905Z,51.17
2018-04-13T13:30:16.446Z,51.20
2018-04-13T13:32:44.087Z,53.00
2018-04-13T13:35:11.657Z,50.33
2018-04-13T13:37:39.248Z,50.37
2018-04-13T13:40:06.781Z,50.17
2018-04-13T13:42:34.339Z,50.89
2018-04-13T13:45:01.876Z,50.72
2018-04-13T13:47:29.424Z,51.25
2018-04-13T13:49:56.970Z,51.67
2018-04-13T13:52:24.529Z,51.58
2018-04-13T13:54:52.083Z,51.87
2018-04-13T13:57:19.639Z,51.60
2018-04-13T13:59:47.182Z,52.15
2018-04-13T14:02:14.771Z,51.27
2018-04-13T14:04:42.319Z,51.59
2018-04-13T14:07:09.897Z,51.41
2018-04-13T14:09:37.417Z,50.41
2018-04-13T14:12:04.944Z,50.71
2018-04-13T14:14:32.541Z,50.78
2018-04-13T14:17:00.107Z,50.67
2018-04-13T14:19:27.642Z,50.71
2018-04-13T14:21:55.193Z,51.37
2018-04-13T14:24:22.733Z,51.87
2018-04-13T14:26:50.291Z,51.85
2018-04-13T14:29:17.837Z,52.36
2018-04-13T14:31:45.349Z,52.47
2018-04-13T14:34:12.904Z,52.39
2018-04-13T14:36:40.482Z,52.43
2018-04-13T14:39:08.066Z,52.95
2018-04-13T14:41:35.608Z,52.89
2018-04-13T14:44:03.202Z,53.04
2018-04-13T14:46:30.758Z,53.21
2018-04-13T14:48:58.319Z,53.52
2018-04-13T14:51:25.870Z,53.54
2018-04-13T14:53:53.438Z,53.34
2018-04-13T14:56:20.994Z,52.73
2018-04-13T14:58:48.554Z,53.30
2018-04-13T15:01:16.112Z,53.12
2018-04-13T15:03:43.675Z,53.70
2018-04-13T15:06:11.243Z,53.78
2018-04-13T15:08:38.793Z,53.77
2018-04-13T15:11:06.374Z,54.14
2018-04-13T15:13:33.891Z,54.45
2018-04-13T15:16:01.467Z,54.35
2018-04-13T15:18:29.207Z,54.55
2018-04-13T15:20:56.783Z,54.72
2018-04-13T15:23:24.334Z,55.18
2018-04-13T15:25:51.909Z,55.05
2018-04-13T15:28:19.476Z,55.21
2018-04-13T15:30:47.052Z,55.17
2018-04-13T15:33:16.250Z,55.23
2018-04-13T15:35:44.475Z,55.76
2018-04-13T15:38:13.763Z,54.87
2018-04-13T15:40:46.275Z,54.40
2018-04-13T15:43:14.529Z,54.50
2018-04-13T15:45:42.075Z,54.31
2018-04-13T15:48:10.286Z,54.81
2018-04-13T15:50:37.889Z,54.76
2018-04-13T15:53:05.434Z,55.62
2018-04-13T15:55:33.070Z,55.63
2018-04-13T15:58:00.636Z,55.92
2018-04-13T16:00:28.388Z,56.16
2018-04-13T16:02:55.945Z,56.21
2018-04-13T16:05:24.252Z,56.75
2018-04-13T16:07:51.814Z,57.34
2018-04-13T16:10:19.874Z,57.18
2018-04-13T16:12:47.407Z,57.11
2018-04-13T16:15:15.691Z,57.49
2018-04-13T16:17:43.312Z,57.69
2018-04-13T16:20:10.877Z,57.61
2018-04-13T16:22:38.531Z,57.31
2018-04-13T16:25:06.066Z,57.74
2018-04-13T16:27:34.437Z,58.08
2018-04-13T16:30:01.969Z,57.79
2018-04-13T16:32:30.117Z,58.14
2018-04-13T16:34:57.660Z,57.84
2018-04-13T16:37:27.954Z,58.38
2018-04-13T16:39:55.923Z,58.06
2018-04-13T16:42:23.521Z,58.22
2018-04-13T16:44:51.137Z,58.42
2018-04-13T16:47:18.844Z,58.82
2018-04-13T16:49:46.400Z,58.04
2018-04-13T16:52:14.658Z,58.52
2018-04-13T16:54:42.216Z,58.54
2018-04-13T16:57:10.388Z,58.76
2018-04-13T16:59:37.940Z,59.27
2018-04-13T17:02:06.018Z,59.64
2018-04-13T17:04:33.626Z,59.47
2018-04-13T17:07:01.227Z,59.82
2018-04-13T17:09:28.792Z,59.71
2018-04-13T17:11:56.358Z,59.86
2018-04-13T17:14:24.072Z,59.58
2018-04-13T17:16:51.630Z,59.68
2018-04-13T17:19:19.915Z,59.86
2018-04-13T17:21:47.465Z,60.07
2018-04-13T17:24:15.433Z,60.36
2018-04-13T17:26:43.009Z,60.35
2018-04-13T17:29:11.538Z,60.04
2018-04-13T17:31:39.974Z,60.19
2018-04-13T17:34:08.448Z,60.34
2018-04-13T17:36:36.208Z,60.06
2018-04-13T17:39:03.812Z,60.80
2018-04-13T17:41:31.361Z,60.91
2018-04-13T17:43:59.082Z,60.80
2018-04-13T17:46:26.715Z,60.64
2018-04-13T17:48:54.887Z,61.12
2018-04-13T17:51:22.443Z,61.12
2018-04-13T17:53:50.453Z,61.63
2018-04-13T17:56:18.003Z,61.69
2018-04-13T17:58:45.874Z,61.51
2018-04-13T18:01:13.435Z,61.50
2018-04-13T18:03:41.381Z,61.52
2018-04-13T18:06:09.028Z,61.74
2018-04-13T18:08:36.571Z,61.96
2018-04-13T18:11:04.205Z,62.49
2018-04-13T18:13:31.836Z,62.24
2018-04-13T18:15:59.409Z,62.60
2018-04-13T18:18:27.978Z,62.59
2018-04-13T18:20:56.087Z,62.52
2018-04-13T18:23:23.846Z,62.62
2018-04-13T18:25:51.902Z,63.09
2018-04-13T18:28:19.474Z,62.58
2018-04-13T18:30:47.025Z,62.83
2018-04-13T18:33:14.648Z,62.90
2018-04-13T18:35:42.217Z,62.94
2018-04-13T18:38:09.794Z,62.90
2018-04-13T18:40:37.337Z,62.90
2018-04-13T18:43:05.013Z,62.82
2018-04-13T18:45:32.593Z,63.05
2018-04-13T18:48:00.160Z,63.16
2018-04-13T18:50:27.715Z,63.19
2018-04-13T18:52:55.393Z,63.11
2018-04-13T18:55:22.954Z,63.40
2018-04-13T18:57:50.506Z,63.23
2018-04-13T19:00:18.054Z,62.93
2018-04-13T19:02:45.743Z,63.02
2018-04-13T19:05:13.347Z,63.63
2018-04-13T19:07:41.472Z,63.56
2018-04-13T19:10:09.022Z,64.11
2018-04-13T19:12:36.616Z,64.08
2018-04-13T19:15:04.150Z,64.07
2018-04-13T19:17:31.803Z,64.35
2018-04-13T19:19:59.363Z,64.57
2018-04-13T19:22:26.995Z,64.60
2018-04-13T19:24:55.055Z,64.76
2018-04-13T19:27:22.788Z,64.83
2018-04-13T19:29:50.797Z,64.67
2018-04-13T19:32:18.408Z,64.58
2018-04-13T19:34:45.960Z,64.77
2018-04-13T19:37:13.579Z,64.76
2018-04-13T19:39:41.122Z,64.66
2018-04-13T19:42:09.505Z,64.58
2018-04-13T19:44:37.056Z,64.76
2018-04-13T19:47:05.024Z,65.00
2018-04-13T19:49:32.624Z,64.73
2018-04-13T19:52:00.848Z,65.03
2018-04-13T19:54:28.464Z,64.75
2018-04-13T19:56:56.073Z,64.60
2018-04-13T19:59:24.463Z,64.81
2018-04-13T20:01:52.026Z,64.83
2018-04-13T20:04:20.140Z,65.01
2018-04-13T20:06:47.770Z,64.77
2018-04-13T20:09:15.872Z,64.89
2018-04-13T20:11:43.464Z,64.96
2018-04-13T20:14:11.060Z,64.89
2018-04-13T20:16:38.785Z,64.98
2018-04-13T20:19:06.313Z,64.94
2018-04-13T20:21:33.901Z,64.69
2018-04-13T20:24:01.460Z,64.85
2018-04-13T20:26:29.800Z,64.80
2018-04-13T20:28:57.372Z,65.20
2018-04-13T20:31:25.397Z,65.12
2018-04-13T20:33:52.949Z,65.14
2018-04-13T20:36:21.005Z,65.28
2018-04-13T20:38:48.621Z,65.40
2018-04-13T20:41:16.408Z,65.48
2018-04-13T20:43:43.989Z,65.68
2018-04-13T20:46:11.651Z,65.22
2018-04-13T20:48:39.335Z,65.47
2018-04-13T20:51:06.869Z,65.02
2018-04-13T20:53:34.463Z,65.20
2018-04-13T20:56:01.998Z,65.24
2018-04-13T20:58:29.549Z,65.64
2018-04-13T21:00:57.105Z,66.14
2018-04-13T21:03:24.690Z,65.85
2018-04-13T21:05:52.239Z,66.35
2018-04-13T21:08:19.805Z,66.08
2018-04-13T21:10:47.410Z,65.94
2018-04-13T21:13:15.050Z,66.39
2018-04-13T21:15:42.605Z,66.63
2018-04-13T21:18:10.209Z,66.69
2018-04-13T21:20:37.768Z,66.91
2018-04-13T21:23:05.364Z,66.93
2018-04-13T21:25:32.918Z,66.95
2018-04-13T21:28:00.516Z,67.08
2018-04-13T21:30:28.138Z,67.08
2018-04-13T21:32:56.417Z,67.12
2018-04-13T21:35:24.008Z,67.14
2018-04-13T21:37:52.117Z,67.44
2018-04-13T21:40:19.676Z,67.29
2018-04-13T21:42:47.549Z,67.38
2018-04-13T21:45:15.107Z,68.51
2018-04-13T21:47:43.080Z,67.62
2018-04-13T21:50:10.615Z,67.74
2018-04-13T21:52:38.159Z,67.62
2018-04-13T21:55:05.829Z,68.39
2018-04-13T21:57:33.354Z,67.70
2018-04-13T22:00:00.930Z,67.74
2018-04-13T22:02:28.505Z,67.88
2018-04-13T22:04:56.082Z,67.90
2018-04-13T22:07:23.622Z,68.15
2018-04-13T22:09:51.198Z,67.95
2018-04-13T22:12:30.599Z,68.06
2018-04-13T22:14:58.801Z,68.47
2018-04-13T22:17:26.351Z,68.14
2018-04-13T22:19:53.905Z,68.44
2018-04-13T22:22:21.469Z,68.64
2018-04-13T22:24:49.033Z,68.58
2018-04-13T22:27:16.593Z,68.22
2018-04-13T22:29:44.141Z,68.59
2018-04-13T22:32:11.670Z,68.87
2018-04-13T22:34:39.228Z,68.96
2018-04-13T22:37:06.812Z,68.63
2018-04-13T22:39:34.366Z,68.68
2018-04-13T22:42:01.910Z,68.59
2018-04-13T22:44:29.792Z,68.84
2018-04-13T22:46:57.347Z,69.53
2018-04-13T22:49:24.888Z,69.70
2018-04-13T22:51:52.493Z,68.93
2018-04-13T22:54:20.044Z,69.51
2018-04-13T22:56:47.632Z,69.36
2018-04-13T22:59:15.162Z,69.58
2018-04-13T23:01:42.759Z,69.13
2018-04-13T23:04:10.366Z,69.74
2018-04-13T23:06:37.939Z,69.27
2018-04-13T23:09:05.481Z,69.56
2018-04-13T23:11:33.057Z,69.80
2018-04-13T23:14:00.599Z,69.56
2018-04-13T23:16:28.217Z,69.78
2018-04-13T23:18:55.766Z,69.66
2018-04-13T23:21:23.895Z,69.97
2018-04-13T23:23:51.440Z,69.98
2018-04-13T23:26:19.028Z,70.19
2018-04-13T23:28:46.590Z,70.49
2018-04-13T23:31:14.147Z,70.75
2018-04-13T23:33:41.687Z,70.87
2018-04-13T23:36:09.262Z,70.92
2018-04-13T23:38:36.827Z,71.23
2018-04-13T23:41:04.418Z,71.24
2018-04-13T23:43:31.973Z,71.34
2018-04-13T23:45:59.610Z,71.20
2018-04-13T23:48:27.215Z,71.26
2018-04-13T23:50:55.272Z,71.17
2018-04-13T23:53:22.829Z,72.49
2018-04-13T23:55:50.761Z,71.89
2018-04-13T23:58:18.307Z,71.92
